Time;durP1;ratioP1;P1;durP2;ratioP2;P2;SDS_P1;SDS_P2;PMS_P1;PMS_P2;Temp;Humidity;BMP_temperature;BMP_pressure;BME280_temperature;BME280_humidity;BME280_pressure;Samples;Min_cycle;Max_cycle;Signal;HPM_P1;HPM_P2
2022/10/08 00:00:53;;;;;;;3.02;2.25;;;;;;;11.33;66.98;100013.79;1723561;83;21010;-69
2022/10/08 00:03:20;;;;;;;4.67;1.72;;;;;;;11.33;66.96;100012.45;1721867;81;21002;-69
2022/10/08 00:06:00;;;;;;;2.35;1.42;;;;;;;11.32;66.93;100006.78;1721791;83;20950;-69
2022/10/08 00:08:28;;;;;;;3.55;1.95;;;;;;;11.31;66.96;100007.80;1716796;83;21009;-69
2022/10/08 00:11:03;;;;;;;3.50;1.82;;;;;;;11.29;67.03;100001.80;1721868;83;20955;-69
2022/10/08 00:13:39;;;;;;;3.35;2.30;;;;;;;11.27;67.02;99999.78;1721568;83;21520;-69
2022/10/08 00:15:58;;;;;;;5.95;1.90;;;;;;;11.25;67.07;99997.29;1723039;82;21464;-69
2022/10/08 00:18:24;;;;;;;3.62;1.80;;;;;;;11.21;67.05;99995.92;1724646;81;20910;-69
2022/10/08 00:20:51;;;;;;;2.47;1.87;;;;;;;11.17;67.14;99993.27;1724729;81;20934;-69
2022/10/08 00:23:17;;;;;;;4.22;1.92;;;;;;;11.14;67.21;99989.09;1724641;82;21109;-69
2022/10/08 00:25:44;;;;;;;4.15;1.92;;;;;;;11.11;67.30;99988.09;1724736;82;21563;-69
2022/10/08 00:28:15;;;;;;;4.47;1.77;;;;;;;11.09;67.42;99987.91;1724607;81;21001;-69
2022/10/08 00:30:43;;;;;;;2.47;1.80;;;;;;;11.10;67.50;99984.27;1724631;81;21500;-68
2022/10/08 00:33:09;;;;;;;2.55;1.85;;;;;;;11.08;67.56;99978.25;1724750;82;20938;-68
2022/10/08 00:35:39;;;;;;;4.30;1.92;;;;;;;11.05;67.58;99974.60;1719310;81;21172;-68
2022/10/08 00:38:06;;;;;;;3.85;1.90;;;;;;;11.01;67.68;99970.09;1742640;81;20867;-69
2022/10/08 00:40:43;;;;;;;2.75;1.98;;;;;;;10.98;67.78;99962.41;1712880;81;20943;-68
2022/10/08 00:43:14;;;;;;;5.35;2.10;;;;;;;10.97;67.86;99959.92;1724815;81;20906;-69
2022/10/08 00:45:43;;;;;;;7.28;2.33;;;;;;;10.97;67.94;99963.92;1724663;81;21512;-69
2022/10/08 00:48:17;;;;;;;3.02;1.90;;;;;;;10.96;67.99;99957.76;1724517;81;21168;-69
2022/10/08 00:50:45;;;;;;;3.87;1.60;;;;;;;10.96;67.99;99955.58;1724875;81;20990;-69
2022/10/08 00:53:12;;;;;;;3.25;2.10;;;;;;;10.94;68.03;99948.27;1724741;81;21696;-69
2022/10/08 00:55:40;;;;;;;2.10;1.70;;;;;;;10.93;68.07;99945.25;1724634;81;20907;-69
2022/10/08 00:58:19;;;;;;;4.33;1.75;;;;;;;10.90;68.15;99944.23;1724631;82;21610;-69
2022/10/08 01:00:47;;;;;;;2.72;1.82;;;;;;;10.87;68.25;99942.73;1727783;82;21568;-69
2022/10/08 01:03:14;;;;;;;5.70;2.17;;;;;;;10.89;68.22;99939.44;1742394;80;21512;-69
2022/10/08 01:06:31;;;;;;;2.47;1.62;;;;;;;10.90;68.23;99930.44;1721756;81;21497;-69
2022/10/08 01:09:15;;;;;;;3.30;2.02;;;;;;;10.91;68.20;99936.11;1721787;81;20973;-68
2022/10/08 01:12:05;;;;;;;2.83;1.77;;;;;;;10.88;68.24;99928.44;1718738;82;21505;-69
2022/10/08 01:15:05;;;;;;;5.55;1.80;;;;;;;10.87;68.26;99928.09;1721372;82;20886;-69
2022/10/08 01:17:54;;;;;;;3.50;1.45;;;;;;;10.84;68.28;99924.95;1726464;82;20965;-69
2022/10/08 01:20:39;;;;;;;3.15;1.70;;;;;;;10.81;68.35;99919.45;1748274;81;20951;-70
2022/10/08 01:23:57;;;;;;;2.98;1.77;;;;;;;10.78;68.45;99919.77;1721110;81;20997;-69
2022/10/08 01:26:35;;;;;;;2.77;2.20;;;;;;;10.75;68.56;99921.41;1723034;81;20963;-69
2022/10/08 01:29:23;;;;;;;5.90;1.95;;;;;;;10.72;68.65;99912.41;1720176;81;21460;-69
2022/10/08 01:31:53;;;;;;;2.55;1.65;;;;;;;10.71;68.76;99908.11;1710073;81;20979;-69
2022/10/08 01:34:36;;;;;;;3.37;1.90;;;;;;;10.69;68.81;99901.28;1723082;81;20950;-69
2022/10/08 01:37:03;;;;;;;2.45;1.67;;;;;;;10.70;68.87;99906.42;1723037;81;20912;-69
2022/10/08 01:39:32;;;;;;;3.90;1.80;;;;;;;10.72;68.90;99902.26;1723028;81;21005;-69
2022/10/08 01:41:58;;;;;;;3.05;1.90;;;;;;;10.73;68.90;99902.61;1730513;81;21144;-69
2022/10/08 01:44:32;;;;;;;4.15;1.75;;;;;;;10.74;68.92;99898.44;1720987;81;20919;-69
2022/10/08 01:47:04;;;;;;;2.35;1.57;;;;;;;10.76;68.96;99892.98;1731689;81;20987;-69
2022/10/08 01:49:38;;;;;;;3.25;1.98;;;;;;;10.76;68.98;99889.83;1721032;81;20940;-69
2022/10/08 01:52:11;;;;;;;3.30;1.50;;;;;;;10.77;68.99;99895.46;1723920;81;20890;-69
2022/10/08 01:54:38;;;;;;;4.30;1.85;;;;;;;10.76;69.04;99888.50;1720928;81;21098;-70
2022/10/08 01:57:05;;;;;;;4.87;1.80;;;;;;;10.77;69.07;99886.15;1725285;81;20898;-69
2022/10/08 01:59:41;;;;;;;3.02;1.77;;;;;;;10.76;69.08;99893.81;1731827;81;21559;-70
2022/10/08 02:02:17;;;;;;;2.20;1.77;;;;;;;10.75;69.15;99885.48;1731987;81;21021;-70
2022/10/08 02:04:44;;;;;;;2.77;1.72;;;;;;;10.77;69.18;99883.98;1723192;81;21032;-70
2022/10/08 02:07:17;;;;;;;3.02;1.90;;;;;;;10.76;69.18;99883.66;1731151;81;21088;-69
2022/10/08 02:10:05;;;;;;;3.70;1.90;;;;;;;10.75;69.25;99884.64;1713836;81;21507;-70
2022/10/08 02:12:32;;;;;;;2.37;1.80;;;;;;;10.73;69.32;99880.83;1727235;81;21072;-69
2022/10/08 02:14:59;;;;;;;2.45;1.75;;;;;;;10.70;69.37;99881.14;1721018;81;21523;-70
2022/10/08 02:18:06;;;;;;;4.35;2.02;;;;;;;10.68;69.45;99880.97;1734307;81;20990;-69
2022/10/08 02:20:51;;;;;;;3.72;2.08;;;;;;;10.67;69.51;99883.28;1716767;81;21177;-69
2022/10/08 02:23:28;;;;;;;4.10;2.02;;;;;;;10.65;69.63;99879.47;1722109;81;22155;-69
2022/10/08 02:26:00;;;;;;;4.12;1.60;;;;;;;10.63;69.70;99885.45;1726602;81;20906;-70
2022/10/08 02:28:47;;;;;;;4.92;2.00;;;;;;;10.61;69.81;99884.76;1733505;81;21015;-70
2022/10/08 02:31:42;;;;;;;2.65;1.65;;;;;;;10.62;69.86;99884.27;1741168;81;20930;-68
2022/10/08 02:34:20;;;;;;;2.45;1.98;;;;;;;10.61;69.90;99886.09;1722475;81;21173;-68
2022/10/08 02:36:52;;;;;;;4.72;1.80;;;;;;;10.58;69.95;99877.61;1726385;81;21021;-69
2022/10/08 02:39:18;;;;;;;4.15;2.33;;;;;;;10.56;70.04;99876.42;1729532;81;21052;-69
2022/10/08 02:41:51;;;;;;;4.53;1.87;;;;;;;10.57;70.09;99877.27;1733452;81;20965;-69
2022/10/08 02:44:40;;;;;;;5.03;1.75;;;;;;;10.57;70.12;99878.11;1750949;81;20969;-69
2022/10/08 02:47:09;;;;;;;3.15;2.05;;;;;;;10.57;70.18;99875.45;1720965;83;21214;-69
2022/10/08 02:49:40;;;;;;;3.40;2.00;;;;;;;10.57;70.15;99871.45;1721663;81;20950;-69
2022/10/08 02:52:08;;;;;;;3.42;1.60;;;;;;;10.53;70.20;99869.59;1732723;81;21012;-69
2022/10/08 02:54:37;;;;;;;6.17;1.70;;;;;;;10.50;70.34;99865.12;1726740;81;20994;-69
2022/10/08 02:57:17;;;;;;;4.45;1.60;;;;;;;10.47;70.40;99868.09;1718676;83;20938;-69
2022/10/08 02:59:44;;;;;;;2.15;1.90;;;;;;;10.46;70.49;99872.58;1743592;81;21219;-69
2022/10/08 03:02:19;;;;;;;4.65;1.60;;;;;;;10.46;70.56;99874.39;1735176;81;20938;-70
2022/10/08 03:05:00;;;;;;;4.50;1.98;;;;;;;10.42;70.67;99870.41;1723137;81;21041;-70
2022/10/08 03:07:30;;;;;;;3.33;1.77;;;;;;;10.41;70.77;99865.57;1721548;83;21037;-69
2022/10/08 03:09:57;;;;;;;3.65;1.70;;;;;;;10.41;70.78;99868.23;1732591;81;20981;-69
2022/10/08 03:12:25;;;;;;;3.47;2.00;;;;;;;10.39;70.85;99872.88;1724976;81;21967;-70
2022/10/08 03:14:52;;;;;;;2.02;1.75;;;;;;;10.40;70.91;99868.41;1731963;81;20896;-70
2022/10/08 03:17:31;;;;;;;3.47;1.75;;;;;;;10.43;70.89;99868.06;1706895;83;21038;-69
2022/10/08 03:20:02;;;;;;;4.92;2.08;;;;;;;10.43;70.88;99869.39;1686366;83;20997;-69
2022/10/08 03:22:29;;;;;;;3.37;2.05;;;;;;;10.42;70.82;99865.92;1695290;83;21503;-70
2022/10/08 03:24:55;;;;;;;3.47;2.02;;;;;;;10.40;70.83;99868.41;1706497;83;21153;-69
2022/10/08 03:27:22;;;;;;;4.42;2.08;;;;;;;10.40;70.86;99865.75;1693557;83;20903;-69
2022/10/08 03:29:48;;;;;;;3.65;2.40;;;;;;;10.41;70.87;99864.73;1706212;83;22299;-70
2022/10/08 03:32:15;;;;;;;2.95;1.85;;;;;;;10.39;70.89;99860.91;1696204;83;20895;-70
2022/10/08 03:34:43;;;;;;;5.22;2.30;;;;;;;10.40;70.90;99862.56;1690068;83;21003;-69
2022/10/08 03:37:09;;;;;;;4.03;2.00;;;;;;;10.40;70.90;99855.11;1688649;83;21223;-69
2022/10/08 03:39:36;;;;;;;4.92;2.12;;;;;;;10.41;70.88;99862.07;1690156;83;21432;-69
2022/10/08 03:42:03;;;;;;;6.20;2.42;;;;;;;10.44;70.84;99855.11;1692994;83;20983;-69
2022/10/08 03:44:30;;;;;;;3.10;2.30;;;;;;;10.43;70.84;99853.43;1693769;83;21005;-69
2022/10/08 03:46:56;;;;;;;3.85;2.12;;;;;;;10.46;70.74;99850.45;1698776;83;20867;-69
2022/10/08 03:49:23;;;;;;;2.27;2.00;;;;;;;10.44;70.77;99847.97;1688463;83;21096;-69
2022/10/08 03:51:50;;;;;;;3.83;2.15;;;;;;;10.43;70.75;99847.62;1689262;83;21002;-69
2022/10/08 03:54:17;;;;;;;3.22;2.10;;;;;;;10.43;70.73;99844.96;1698614;83;20934;-69
2022/10/08 03:56:43;;;;;;;3.70;2.37;;;;;;;10.42;70.74;99841.98;1688172;83;21045;-69
2022/10/08 03:59:10;;;;;;;4.05;2.83;;;;;;;10.43;70.76;99840.13;1696955;83;21006;-69
2022/10/08 04:01:36;;;;;;;3.90;2.08;;;;;;;10.46;70.63;99844.64;1709144;83;21142;-69
2022/10/08 04:04:03;;;;;;;4.30;2.50;;;;;;;10.47;70.63;99846.81;1690167;83;20963;-69
2022/10/08 04:06:30;;;;;;;5.58;2.55;;;;;;;10.47;70.64;99840.16;1695381;83;20947;-69
2022/10/08 04:08:59;;;;;;;4.10;2.00;;;;;;;10.49;70.64;99836.34;1709155;83;20971;-69
2022/10/08 04:11:25;;;;;;;3.85;2.35;;;;;;;10.50;70.59;99837.19;1688317;84;20902;-69
2022/10/08 04:13:51;;;;;;;2.75;2.40;;;;;;;10.49;70.58;99832.36;1709139;83;21156;-69
2022/10/08 04:16:18;;;;;;;2.72;1.98;;;;;;;10.49;70.55;99831.52;1717865;83;20992;-69
2022/10/08 04:18:45;;;;;;;8.25;2.80;;;;;;;10.53;70.45;99838.20;1726918;81;21065;-69
2022/10/08 04:21:15;;;;;;;4.22;2.10;;;;;;;10.56;70.37;99827.73;1747597;81;20863;-69
2022/10/08 04:23:42;;;;;;;2.40;1.98;;;;;;;10.57;70.35;99826.23;1727085;81;20918;-69
2022/10/08 04:26:10;;;;;;;2.80;2.10;;;;;;;10.57;70.37;99828.05;1720442;82;21264;-68
2022/10/08 04:28:39;;;;;;;3.90;2.12;;;;;;;10.56;70.40;99814.43;1726927;82;20973;-68
2022/10/08 04:31:10;;;;;;;3.65;2.08;;;;;;;10.56;70.48;99821.08;1726957;81;20898;-68
2022/10/08 04:33:36;;;;;;;3.83;2.10;;;;;;;10.56;70.49;99813.10;1705986;83;20916;-69
2022/10/08 04:36:11;;;;;;;15.85;11.30;;;;;;;10.58;70.53;99813.27;1726855;81;20866;-69
2022/10/08 04:38:38;;;;;;;5.85;3.17;;;;;;;10.62;70.50;99811.94;1739312;81;21880;-69
2022/10/08 04:41:08;;;;;;;6.55;2.67;;;;;;;10.68;70.42;99811.79;1721608;81;20954;-69
2022/10/08 04:43:35;;;;;;;4.15;2.45;;;;;;;10.72;70.52;99817.11;1721974;81;20926;-69
2022/10/08 04:46:02;;;;;;;4.97;2.58;;;;;;;10.78;70.44;99813.31;1721704;81;20958;-69
2022/10/08 04:48:29;;;;;;;5.75;2.80;;;;;;;10.86;70.32;99813.82;1721666;83;21013;-69
2022/10/08 04:51:00;;;;;;;5.17;2.37;;;;;;;10.96;70.18;99814.01;1713306;81;21206;-69
2022/10/08 04:53:27;;;;;;;3.10;2.20;;;;;;;11.08;69.95;99806.52;1721966;81;21037;-69
2022/10/08 04:55:54;;;;;;;3.42;2.25;;;;;;;11.31;69.43;99802.22;1721746;81;20938;-69
2022/10/08 04:58:22;;;;;;;5.33;2.47;;;;;;;11.49;69.07;99808.69;1715839;81;20986;-69
2022/10/08 05:00:48;;;;;;;3.00;2.30;;;;;;;11.71;68.59;99810.18;1715654;83;20994;-70
2022/10/08 05:03:15;;;;;;;4.70;2.70;;;;;;;11.93;67.98;99804.64;1721771;81;21953;-69
2022/10/08 05:05:43;;;;;;;4.60;2.50;;;;;;;12.16;67.36;99808.23;1720576;81;20977;-69
2022/10/08 05:08:10;;;;;;;4.85;2.62;;;;;;;12.41;66.79;99806.80;1721147;81;21546;-70
2022/10/08 05:10:38;;;;;;;4.53;3.22;;;;;;;12.71;66.02;99806.80;1721798;81;21021;-73
2022/10/08 05:13:06;;;;;;;5.60;2.90;;;;;;;13.01;65.16;99800.58;1721798;82;20883;-69
2022/10/08 05:15:34;;;;;;;7.20;2.83;;;;;;;13.33;63.96;99796.02;1720816;81;21636;-69
2022/10/08 05:18:02;;;;;;;4.60;3.35;;;;;;;13.59;63.18;99797.28;1729655;81;20897;-71
2022/10/08 05:20:29;;;;;;;8.60;3.87;;;;;;;13.87;62.46;99794.02;1726195;83;21530;-70
2022/10/08 05:22:57;;;;;;;4.80;3.08;;;;;;;14.13;61.43;99793.84;1726386;83;20930;-71
2022/10/08 05:25:23;;;;;;;3.92;3.10;;;;;;;14.40;60.61;99795.06;1728999;81;21016;-70
2022/10/08 05:27:50;;;;;;;5.08;3.02;;;;;;;14.65;59.65;99792.37;1705940;83;21248;-71
2022/10/08 05:30:17;;;;;;;11.12;3.05;;;;;;;14.91;58.47;99797.71;1732357;81;21433;-70
2022/10/08 05:32:43;;;;;;;4.67;3.08;;;;;;;15.06;57.81;99795.30;1727304;81;20985;-68
2022/10/08 05:35:10;;;;;;;5.87;3.20;;;;;;;15.26;57.09;99787.42;1726448;83;21049;-68
2022/10/08 05:37:36;;;;;;;4.83;2.67;;;;;;;15.44;56.30;99783.77;1730072;81;21436;-66
2022/10/08 05:40:04;;;;;;;5.67;2.92;;;;;;;15.68;55.89;99789.24;1726342;83;21097;-70
2022/10/08 05:42:30;;;;;;;5.37;2.65;;;;;;;15.95;55.19;99784.38;1726320;83;20949;-69
2022/10/08 05:44:57;;;;;;;4.10;2.85;;;;;;;16.18;54.43;99783.58;1726515;83;21083;-71
2022/10/08 05:47:23;;;;;;;6.35;2.75;;;;;;;16.38;53.71;99783.66;1731369;81;21491;-72
2022/10/08 05:49:50;;;;;;;4.45;2.72;;;;;;;16.57;53.08;99778.41;1730263;81;21039;-72
2022/10/08 05:52:17;;;;;;;6.22;3.08;;;;;;;16.79;52.30;99779.08;1726726;83;21240;-71
2022/10/08 05:54:43;;;;;;;3.75;2.22;;;;;;;17.01;51.77;99781.93;1726418;83;21440;-71
2022/10/08 05:57:10;;;;;;;7.28;2.55;;;;;;;17.26;51.04;99776.27;1734271;81;20985;-72
2022/10/08 05:59:37;;;;;;;5.62;2.33;;;;;;;17.52;50.21;99781.35;1726306;83;20917;-70
2022/10/08 06:02:03;;;;;;;3.83;2.67;;;;;;;17.67;49.48;99772.58;1726434;83;20954;-71
2022/10/08 06:04:30;;;;;;;4.00;2.67;;;;;;;17.80;49.06;99768.01;1742326;81;21200;-68
2022/10/08 06:06:56;;;;;;;9.85;2.35;;;;;;;18.01;48.41;99783.08;1733672;81;20894;-71
2022/10/08 06:09:23;;;;;;;4.45;2.60;;;;;;;18.16;47.76;99784.16;1736569;81;21491;-72
2022/10/08 06:11:50;;;;;;;3.87;2.52;;;;;;;18.30;47.50;99774.47;1726668;83;21131;-71
2022/10/08 06:14:23;;;;;;;3.45;2.55;;;;;;;18.49;46.74;99785.73;1726325;83;20950;-69
2022/10/08 06:16:51;;;;;;;8.38;2.87;;;;;;;18.57;46.33;99785.17;1736774;81;20981;-69
2022/10/08 06:19:17;;;;;;;2.85;2.25;;;;;;;18.63;46.19;99782.98;1749222;80;21024;-69
2022/10/08 06:21:44;;;;;;;4.05;2.20;;;;;;;18.68;45.90;99791.24;1727672;83;20965;-72
2022/10/08 06:24:11;;;;;;;2.77;2.50;;;;;;;18.65;45.99;99791.66;1747603;80;21011;-72
2022/10/08 06:26:39;;;;;;;4.83;2.83;;;;;;;18.66;46.03;99775.30;1727816;83;20985;-72
2022/10/08 06:29:08;;;;;;;3.80;2.60;;;;;;;18.73;46.31;99777.43;1746807;80;21193;-69
2022/10/08 06:31:34;;;;;;;6.33;2.67;;;;;;;19.04;45.77;99779.31;1720275;83;20922;-72
2022/10/08 06:34:03;;;;;;;3.12;2.83;;;;;;;19.37;44.86;99770.48;1747567;80;20871;-68
2022/10/08 06:36:31;;;;;;;6.85;3.42;;;;;;;19.59;44.03;99771.77;1727908;83;20989;-68
2022/10/08 06:39:00;;;;;;;4.08;2.67;;;;;;;19.77;43.66;99770.14;1746901;80;21093;-68
2022/10/08 06:41:29;;;;;;;3.17;2.25;;;;;;;19.98;43.40;99773.25;1746497;80;21257;-71
2022/10/08 06:43:55;;;;;;;7.83;2.62;;;;;;;20.20;42.14;99765.02;1747650;82;20851;-70
2022/10/08 06:46:22;;;;;;;4.47;3.02;;;;;;;20.26;42.20;99774.94;1749568;80;21006;-68
2022/10/08 06:48:49;;;;;;;4.28;2.80;;;;;;;20.26;42.00;99778.98;1726158;82;21555;-68
2022/10/08 06:51:16;;;;;;;3.62;2.50;;;;;;;20.22;41.74;99756.68;1759826;80;21068;-68
2022/10/08 06:53:43;;;;;;;3.05;2.50;;;;;;;20.17;42.19;99764.11;1762404;80;21138;-67
2022/10/08 06:56:13;;;;;;;4.47;2.95;;;;;;;20.33;41.81;99771.34;1748544;80;20894;-74
2022/10/08 06:58:41;;;;;;;4.22;2.75;;;;;;;20.36;41.88;99762.27;1749172;80;20993;-70
2022/10/08 07:01:13;;;;;;;3.60;2.35;;;;;;;20.36;41.91;99766.31;1727553;83;21566;-71
2022/10/08 07:03:39;;;;;;;2.70;2.50;;;;;;;20.31;41.87;99758.87;1759328;80;20894;-70
2022/10/08 07:06:11;;;;;;;5.67;3.02;;;;;;;20.34;42.05;99756.23;1759465;80;21136;-69
2022/10/08 07:08:38;;;;;;;6.12;2.75;;;;;;;20.40;41.84;99759.91;1759176;80;20945;-69
2022/10/08 07:11:14;;;;;;;3.12;2.42;;;;;;;20.41;41.97;99758.88;1744703;80;20892;-71
2022/10/08 07:13:40;;;;;;;4.93;2.60;;;;;;;20.41;42.03;99752.95;1746320;80;20942;-70
2022/10/08 07:16:19;;;;;;;3.22;2.65;;;;;;;20.38;42.07;99748.52;1721841;82;21803;-70
2022/10/08 07:18:51;;;;;;;3.70;2.58;;;;;;;20.44;41.92;99757.08;1768487;80;21024;-70
2022/10/08 07:21:19;;;;;;;4.15;2.67;;;;;;;20.51;41.81;99759.16;1706031;83;20954;-65
2022/10/08 07:23:46;;;;;;;3.65;2.47;;;;;;;20.60;41.87;99738.34;1724752;81;21037;-64
2022/10/08 07:26:22;;;;;;;5.40;2.40;;;;;;;20.77;41.50;99744.77;1728634;81;20852;-68
2022/10/08 07:29:05;;;;;;;5.67;2.70;;;;;;;20.92;40.95;99739.76;1732863;82;20933;-66
2022/10/08 07:31:35;;;;;;;4.17;2.05;;;;;;;20.91;40.84;99744.02;1737929;82;21463;-74
2022/10/08 07:34:04;;;;;;;5.22;3.00;;;;;;;20.86;40.67;99729.85;1713722;82;20918;-67
2022/10/08 07:36:31;;;;;;;5.75;2.50;;;;;;;20.76;41.01;99743.11;1719388;82;20903;-77
2022/10/08 07:39:01;;;;;;;6.30;2.52;;;;;;;20.72;41.36;99742.45;1734273;82;21034;-68
2022/10/08 07:41:27;;;;;;;4.65;2.30;;;;;;;20.91;40.85;99735.39;1776542;80;21479;-71
2022/10/08 07:43:59;;;;;;;4.62;2.52;;;;;;;21.03;40.66;99737.31;1756673;80;21109;-69
2022/10/08 07:46:34;;;;;;;3.02;2.20;;;;;;;21.03;40.39;99737.31;1776532;80;20844;-69
2022/10/08 07:49:03;;;;;;;2.85;2.45;;;;;;;21.01;40.67;99732.15;1763034;81;20922;-69
2022/10/08 07:51:33;;;;;;;2.47;2.20;;;;;;;21.03;40.76;99723.79;1736250;81;21504;-68
2022/10/08 07:54:00;;;;;;;4.60;2.47;;;;;;;21.11;40.69;99715.38;1727242;81;21034;-68
2022/10/08 07:56:27;;;;;;;3.47;2.33;;;;;;;21.23;40.48;99713.50;1746929;80;21269;-67
2022/10/08 07:58:54;;;;;;;3.27;2.42;;;;;;;21.29;40.67;99711.22;1738484;81;21052;-72
2022/10/08 08:01:28;;;;;;;2.95;2.60;;;;;;;21.40;40.60;99722.59;1776582;80;21085;-69
2022/10/08 08:03:54;;;;;;;5.12;2.60;;;;;;;21.57;40.54;99706.45;1776010;80;21578;-75
2022/10/08 08:06:20;;;;;;;3.92;2.33;;;;;;;21.72;40.19;99713.04;1775359;80;21061;-68
2022/10/08 08:08:46;;;;;;;4.45;2.83;;;;;;;21.84;40.08;99707.62;1755433;80;21260;-69
2022/10/08 08:11:16;;;;;;;3.02;2.33;;;;;;;22.04;39.93;99719.75;1720785;81;20887;-73
2022/10/08 08:13:44;;;;;;;4.62;2.52;;;;;;;22.23;39.59;99711.46;1776486;80;20875;-66
2022/10/08 08:16:16;;;;;;;3.40;2.42;;;;;;;22.35;39.50;99709.00;1774115;80;21002;-68
2022/10/08 08:18:46;;;;;;;3.92;2.40;;;;;;;22.51;39.27;99696.56;1730874;82;20944;-68
2022/10/08 08:21:16;;;;;;;6.22;3.22;;;;;;;22.66;39.28;99690.93;1740147;81;21779;-67
2022/10/08 08:23:46;;;;;;;6.67;2.62;;;;;;;22.98;38.97;99698.54;1721313;81;21131;-67
2022/10/08 08:26:17;;;;;;;5.15;2.60;;;;;;;23.28;38.52;99684.93;1703275;83;20931;-66
2022/10/08 08:28:43;;;;;;;2.77;2.50;;;;;;;23.63;37.87;99682.50;1722898;81;20867;-71
2022/10/08 08:31:15;;;;;;;5.30;2.77;;;;;;;24.03;37.39;99691.21;1715309;81;20992;-67
2022/10/08 08:33:50;;;;;;;3.45;2.70;;;;;;;24.26;36.77;99680.64;1710243;81;21816;-66
2022/10/08 08:36:17;;;;;;;5.30;2.30;;;;;;;24.48;36.43;99694.48;1713723;82;21418;-66
2022/10/08 08:38:45;;;;;;;3.12;2.37;;;;;;;24.59;36.09;99683.18;1721196;81;20896;-65
2022/10/08 08:41:35;;;;;;;5.15;2.83;;;;;;;24.56;36.33;99679.61;1746184;81;21539;-65
2022/10/08 08:44:10;;;;;;;3.80;2.52;;;;;;;24.84;36.06;99692.17;1710384;82;21575;-66
2022/10/08 08:46:40;;;;;;;5.12;2.52;;;;;;;25.04;35.82;99678.75;1718965;82;24873;-67
2022/10/08 08:49:24;;;;;;;2.98;2.60;;;;;;;25.27;35.33;99678.38;1713794;82;20940;-67
2022/10/08 08:51:51;;;;;;;3.47;2.45;;;;;;;25.35;35.27;99668.91;1692593;80;21511;-67
2022/10/08 08:54:19;;;;;;;3.12;2.80;;;;;;;25.55;35.12;99663.65;1757595;81;20958;-67
2022/10/08 08:56:46;;;;;;;3.30;2.67;;;;;;;25.81;35.04;99662.70;1750551;80;21059;-66
2022/10/08 08:59:28;;;;;;;5.47;2.45;;;;;;;26.21;34.42;99656.61;1750665;81;21819;-72
2022/10/08 09:02:00;;;;;;;4.87;2.52;;;;;;;26.54;34.07;99651.27;1716494;82;21005;-68
2022/10/08 09:04:38;;;;;;;5.62;2.22;;;;;;;26.78;33.66;99653.77;1698961;84;20908;-68
2022/10/08 09:07:07;;;;;;;3.85;2.42;;;;;;;26.83;33.66;99660.05;1776100;80;21087;-68
2022/10/08 09:09:40;;;;;;;4.83;3.30;;;;;;;26.90;33.83;99657.89;1762774;81;21444;-68
2022/10/08 09:12:22;;;;;;;5.60;3.60;;;;;;;27.26;32.89;99649.14;1762718;81;21189;-68
2022/10/08 09:14:53;;;;;;;6.08;3.30;;;;;;;27.35;32.47;99645.31;1750080;81;20954;-68
2022/10/08 09:17:29;;;;;;;5.15;3.37;;;;;;;27.45;32.43;99657.61;1729447;82;21624;-67
2022/10/08 09:19:55;;;;;;;5.12;2.92;;;;;;;27.76;32.17;99649.62;1747978;82;20976;-67
2022/10/08 09:22:28;;;;;;;5.90;3.62;;;;;;;27.89;31.86;99642.73;1735300;82;21049;-68
2022/10/08 09:25:00;;;;;;;7.97;3.40;;;;;;;27.87;31.68;99659.97;1727178;82;21135;-68
2022/10/08 09:27:55;;;;;;;4.33;3.87;;;;;;;27.83;31.49;99646.58;1727006;82;21389;-68
2022/10/08 09:30:37;;;;;;;3.22;2.92;;;;;;;28.00;31.50;99642.39;1727069;82;21025;-68
2022/10/08 09:33:18;;;;;;;3.87;2.72;;;;;;;28.25;31.14;99639.31;1727002;82;23128;-68
2022/10/08 09:35:49;;;;;;;5.30;3.30;;;;;;;28.48;30.64;99653.67;1726721;82;21412;-67
2022/10/08 09:38:28;;;;;;;3.33;2.80;;;;;;;28.16;30.90;99644.00;1727003;82;21265;-68
2022/10/08 09:41:09;;;;;;;5.35;2.83;;;;;;;28.16;30.95;99642.63;1738140;82;20940;-68
2022/10/08 09:43:37;;;;;;;3.90;2.65;;;;;;;28.43;30.76;99633.19;1727447;82;20890;-68
2022/10/08 09:46:10;;;;;;;4.15;2.60;;;;;;;28.60;30.84;99642.64;1739074;82;20889;-68
2022/10/08 09:48:38;;;;;;;6.67;3.20;;;;;;;28.84;30.22;99635.94;1738880;82;20947;-68
2022/10/08 09:51:15;;;;;;;4.53;3.27;;;;;;;29.07;29.79;99619.34;1727025;82;21975;-68
2022/10/08 09:53:51;;;;;;;6.33;3.25;;;;;;;29.29;29.44;99623.25;1742040;82;20927;-68
2022/10/08 09:56:26;;;;;;;4.70;2.62;;;;;;;29.40;29.43;99612.19;1740429;82;21060;-68
2022/10/08 09:59:02;;;;;;;5.17;2.95;;;;;;;29.38;29.19;99608.92;1748370;81;21607;-68
2022/10/08 10:01:31;;;;;;;6.40;3.45;;;;;;;29.46;29.22;99606.92;1748535;81;20989;-70
2022/10/08 10:04:00;;;;;;;5.75;3.10;;;;;;;29.60;28.99;99600.99;1748364;81;21828;-67
2022/10/08 10:06:33;;;;;;;5.30;3.35;;;;;;;29.68;28.82;99600.35;1748287;81;21540;-70
2022/10/08 10:09:21;;;;;;;4.95;3.15;;;;;;;29.29;29.14;99587.64;1748356;81;20961;-69
2022/10/08 10:12:04;;;;;;;6.95;3.33;;;;;;;28.78;29.75;99586.45;1747672;81;20972;-67
2022/10/08 10:14:42;;;;;;;5.00;2.92;;;;;;;28.22;30.77;99579.70;1721598;82;20985;-67
2022/10/08 10:17:14;;;;;;;4.08;2.98;;;;;;;27.63;31.62;99590.63;1748193;81;21152;-67
2022/10/08 10:19:58;;;;;;;3.25;2.47;;;;;;;26.82;32.69;99598.39;1745810;81;20943;-67
2022/10/08 10:22:49;;;;;;;4.22;2.83;;;;;;;26.05;33.86;99577.20;1745866;81;20984;-67
2022/10/08 10:25:33;;;;;;;5.12;2.92;;;;;;;25.47;34.80;99570.19;1745756;81;20922;-67
2022/10/08 10:28:07;;;;;;;5.05;2.60;;;;;;;25.12;35.74;99569.39;1745688;81;21507;-68
2022/10/08 10:30:56;;;;;;;3.27;2.80;;;;;;;24.98;36.31;99570.38;1745466;81;21945;-67
2022/10/08 10:33:28;;;;;;;3.20;2.75;;;;;;;24.95;36.80;99568.19;1745815;81;20946;-68
2022/10/08 10:35:56;;;;;;;4.17;2.83;;;;;;;24.85;37.04;99571.37;1745780;81;21587;-69
2022/10/08 10:38:29;;;;;;;3.35;2.62;;;;;;;24.77;37.05;99567.77;1745841;81;21084;-69
2022/10/08 10:41:28;;;;;;;4.25;2.50;;;;;;;24.67;37.33;99564.94;1745879;81;20986;-68
2022/10/08 10:44:01;;;;;;;2.90;2.37;;;;;;;24.60;37.50;99565.17;1745890;81;21264;-68
2022/10/08 10:46:57;;;;;;;3.10;2.67;;;;;;;24.44;37.90;99553.88;1745918;81;21550;-68
2022/10/08 10:49:37;;;;;;;3.30;2.97;;;;;;;24.40;38.05;99550.84;1746042;81;21001;-68
2022/10/08 10:52:35;;;;;;;4.72;2.85;;;;;;;24.38;38.57;99544.02;1745788;81;20903;-68
2022/10/08 10:55:10;;;;;;;3.87;2.72;;;;;;;24.41;38.45;99547.59;1745945;81;20930;-68
2022/10/08 10:57:51;;;;;;;5.30;2.20;;;;;;;24.44;37.57;99539.74;1740181;81;21222;-69
2022/10/08 11:00:51;;;;;;;3.40;2.77;;;;;;;24.44;37.22;99546.55;1745740;81;20895;-68
2022/10/08 11:03:53;;;;;;;3.22;2.52;;;;;;;24.45;37.05;99534.59;1745024;81;21460;-68
2022/10/08 11:06:46;;;;;;;2.45;2.10;;;;;;;24.30;37.19;99520.84;1745786;81;20938;-68
2022/10/08 11:09:22;;;;;;;3.02;2.60;;;;;;;24.23;37.48;99522.97;1726184;81;21420;-68
2022/10/08 11:11:57;;;;;;;2.17;1.98;;;;;;;24.20;37.95;99515.85;1745473;81;21153;-69
2022/10/08 11:14:44;;;;;;;2.75;2.35;;;;;;;24.15;38.09;99522.06;1745652;81;21594;-68
2022/10/08 11:17:34;;;;;;;2.50;2.20;;;;;;;24.11;37.62;99509.26;1708229;80;20979;-67
2022/10/08 11:20:23;;;;;;;5.08;2.50;;;;;;;24.02;37.99;99493.09;1693909;83;21492;-67
2022/10/08 11:23:01;;;;;;;2.58;1.95;;;;;;;24.03;37.89;99496.93;1693841;83;21547;-68
2022/10/08 11:25:58;;;;;;;2.30;2.10;;;;;;;24.01;37.59;99499.09;1693663;83;21146;-69
2022/10/08 11:29:08;;;;;;;3.65;2.22;;;;;;;23.97;37.75;99496.59;1693630;83;20950;-69
2022/10/08 11:31:42;;;;;;;3.30;2.08;;;;;;;24.00;37.41;99491.17;1693512;83;20949;-68
2022/10/08 11:34:29;;;;;;;9.00;7.47;;;;;;;24.01;37.44;99486.86;1693043;83;21001;-68
2022/10/08 11:37:26;;;;;;;4.90;3.08;;;;;;;23.98;37.23;99484.66;1693729;83;20965;-68
2022/10/08 11:40:26;;;;;;;3.65;2.42;;;;;;;23.99;37.02;99482.20;1693595;84;21287;-68
2022/10/08 11:43:05;;;;;;;2.42;2.22;;;;;;;23.86;37.44;99473.10;1693583;83;21696;-68
2022/10/08 11:45:38;;;;;;;4.30;2.50;;;;;;;23.71;37.89;99472.95;1693513;83;20985;-67
2022/10/08 11:48:32;;;;;;;2.58;2.37;;;;;;;23.57;38.11;99477.16;1693453;83;21455;-68
2022/10/08 11:51:22;;;;;;;2.98;2.30;;;;;;;23.47;38.17;99464.27;1693509;83;21557;-69
2022/10/08 11:54:30;;;;;;;5.58;2.45;;;;;;;23.42;38.59;99468.28;1704716;83;21972;-68
2022/10/08 11:57:17;;;;;;;2.52;2.05;;;;;;;23.38;38.90;99463.09;1693462;83;20965;-69
2022/10/08 11:59:54;;;;;;;5.50;3.00;;;;;;;23.35;39.08;99460.84;1693535;83;21013;-67
2022/10/08 12:02:31;;;;;;;2.60;2.40;;;;;;;23.35;39.33;99457.60;1693449;83;21034;-68